Aérodrome :
LOGIN :

S'inscrire | Disclaimer

   EN    FR    IT 

 










Légende :    VFR   VFR Marginal   IFR   IFR Intensif   IFR Très Intensif
Visi : 
Plafond : 
>= 8 km
>= 3000ft
5 à 8 km
1000 à 3000 ft
1500m à 5 km
500 à 1000 ft
800 à 1500m
200 à 500 ft
< 800m
< 200 ft
Symboles :   Orages  Brouillard  Fortes neiges  Fortes précipitations  Vent > 20 kt
SIGMETs :   Divers  Orages  Givrage  Turbulence  Onde Orograph.  Cendres Volcan.







- Altitude de l'aérodrome : 112 ft
- Code IATA : KIR


EIKY - Kerry Farranfore

DERNIER METAR :
  • 221730Z 26013KT 250V310 9999 SCT013 BKN030 11/08 Q1011

METARs EXPIRÉS :
  • 221700Z 26016KT 9999 FEW008 SCT016 BKN029 10/09 Q1011
  • 221630Z 26014KT 240V300 9999 -DZ BKN019 11/08 Q1010
  • 221600Z 26016KT 240V300 9999 SCT023 BKN044 12/08 Q1010
  • 221530Z 26017KT 9999 SCT022 BKN041 13/08 Q1010
  • 221500Z 27015KT 240V300 9999 SCT023 BKN038 12/07 Q1010

TAF TAF EIKY
Valide du 22 à 18h jusqu'au 22 à 21h UTC


221700Z 2218/2221 27014KT 9999 SCT015 BKN030
Pas de NOTAMs connus pour ce terrain.



MET'MAP, la Météo Aéronautique d'un coup d'oeil ! - Copyright ORBIFLY Décembre 2007 - Disclaimer

ORBIFLY MET'MAP TEAM :

Programmation & Développement : Alexandra Zaïnal
Conception & Développement : Baudouin d'Aumeries
Co-Programmation & Développement : Marc-Olivier Méhu
Soutien technique & logistique : Manuel Goepfert

Contact : metmap@orbifly.com




SOURCES & CREDITS :

   NOAA